createdAt,value
2023-02-23T00:02:24.920Z,24.33
2023-02-23T00:04:53.823Z,20.00
2023-02-23T00:07:22.729Z,19.25
2023-02-23T00:09:52.987Z,19.83
2023-02-23T00:12:24.033Z,24.38
2023-02-23T00:14:54.258Z,24.13
2023-02-23T00:17:24.521Z,28.92
2023-02-23T00:19:53.587Z,32.92
2023-02-23T00:22:22.440Z,30.48
2023-02-23T00:24:51.283Z,27.15
2023-02-23T00:27:21.218Z,25.70
2023-02-23T00:29:51.073Z,25.67
2023-02-23T00:32:21.506Z,24.88
2023-02-23T00:34:53.263Z,23.92
2023-02-23T00:37:23.543Z,24.45
2023-02-23T00:39:52.984Z,23.17
2023-02-23T00:42:21.885Z,23.02
2023-02-23T00:44:51.144Z,23.27
2023-02-23T00:47:21.546Z,22.17
2023-02-23T00:49:51.608Z,23.33
2023-02-23T00:52:21.288Z,21.85
2023-02-23T00:54:51.576Z,19.05
2023-02-23T00:57:20.468Z,17.85
2023-02-23T00:59:51.548Z,16.88
2023-02-23T01:02:21.850Z,18.08
2023-02-23T01:04:51.754Z,18.60
2023-02-23T01:07:20.562Z,18.65
2023-02-23T01:09:49.707Z,17.55
2023-02-23T01:12:18.609Z,16.77
2023-02-23T01:14:47.767Z,18.13
2023-02-23T01:17:17.996Z,15.05
2023-02-23T01:19:48.303Z,14.45
2023-02-23T01:22:17.252Z,14.20
2023-02-23T01:24:47.508Z,13.60
2023-02-23T01:27:16.304Z,12.13
2023-02-23T01:29:45.169Z,13.35
2023-02-23T01:32:16.864Z,12.57
2023-02-23T01:34:45.940Z,9.77
2023-02-23T01:37:16.792Z,10.82
2023-02-23T01:39:46.406Z,10.70
2023-02-23T01:42:15.632Z,11.13
2023-02-23T01:45:26.202Z,11.93
2023-02-23T01:48:01.787Z,10.48
2023-02-23T01:50:46.508Z,13.57
2023-02-23T01:53:17.973Z,14.73
2023-02-23T01:55:49.857Z,16.70
2023-02-23T01:58:21.240Z,15.25
2023-02-23T02:00:54.458Z,14.38
2023-02-23T02:03:32.228Z,15.35
2023-02-23T02:06:03.297Z,14.80
2023-02-23T02:08:43.270Z,14.20
2023-02-23T02:11:26.310Z,14.07
2023-02-23T02:13:58.307Z,15.43
2023-02-23T02:16:45.174Z,14.80
2023-02-23T02:19:39.095Z,15.02
2023-02-23T02:22:27.505Z,15.30
2023-02-23T02:25:42.335Z,12.40
2023-02-23T02:28:43.325Z,11.57
2023-02-23T02:31:58.778Z,11.52
2023-02-23T02:35:05.848Z,9.27
2023-02-23T02:38:04.081Z,8.90
2023-02-23T02:40:53.355Z,10.40
2023-02-23T02:43:32.524Z,10.93
2023-02-23T02:46:11.469Z,11.07
2023-02-23T02:48:47.982Z,11.38
2023-02-23T02:51:26.244Z,10.43
2023-02-23T02:54:07.164Z,7.60
2023-02-23T02:56:40.681Z,9.90
2023-02-23T02:59:32.229Z,7.60
2023-02-23T03:02:19.102Z,8.27
2023-02-23T03:05:05.219Z,8.18
2023-02-23T03:07:59.468Z,8.30
2023-02-23T03:10:55.343Z,6.65
2023-02-23T03:16:44.396Z,6.72
2023-02-23T03:19:39.121Z,7.25
2023-02-23T03:22:34.483Z,6.75
2023-02-23T03:25:26.864Z,8.82
2023-02-23T03:28:25.461Z,8.30
2023-02-23T03:31:26.044Z,10.43
2023-02-23T03:34:19.667Z,10.27
2023-02-23T03:37:11.288Z,12.65
2023-02-23T03:40:02.264Z,14.43
2023-02-23T03:42:54.561Z,17.55
2023-02-23T03:45:44.440Z,16.15
2023-02-23T03:48:34.625Z,13.48
2023-02-23T03:51:25.806Z,15.25
2023-02-23T03:54:20.645Z,14.23
2023-02-23T03:57:10.479Z,14.90
2023-02-23T04:00:02.042Z,13.32
2023-02-23T04:02:54.712Z,13.52
2023-02-23T04:05:42.583Z,12.82
2023-02-23T04:08:32.556Z,13.40
2023-02-23T04:11:28.019Z,14.55
2023-02-23T04:14:00.268Z,13.30
2023-02-23T04:16:29.420Z,14.27
2023-02-23T04:18:59.945Z,14.80
2023-02-23T04:21:29.575Z,16.60
2023-02-23T04:23:58.477Z,16.55
2023-02-23T04:26:27.375Z,17.17
2023-02-23T04:28:56.301Z,15.77
2023-02-23T04:31:26.190Z,18.27
2023-02-23T04:33:55.250Z,15.85
2023-02-23T04:36:26.880Z,21.17
2023-02-23T04:38:55.776Z,17.75
2023-02-23T04:41:24.602Z,18.08
2023-02-23T04:43:53.518Z,20.30
2023-02-23T04:46:22.492Z,17.85
2023-02-23T04:48:51.311Z,15.10
2023-02-23T04:51:20.332Z,17.55
2023-02-23T04:53:50.654Z,19.45
2023-02-23T04:56:19.486Z,18.13
2023-02-23T04:58:48.312Z,19.42
2023-02-23T05:01:17.603Z,23.58
2023-02-23T05:03:46.643Z,21.55
2023-02-23T05:06:15.662Z,19.30
2023-02-23T05:08:45.685Z,20.85
2023-02-23T05:11:16.131Z,19.63
2023-02-23T05:13:45.057Z,22.13
2023-02-23T05:16:14.004Z,18.20
2023-02-23T05:18:42.937Z,20.35
2023-02-23T05:21:13.187Z,18.50
2023-02-23T05:23:42.158Z,19.05
2023-02-23T05:26:13.469Z,19.52
2023-02-23T05:28:45.035Z,17.05
2023-02-23T05:31:14.376Z,18.23
2023-02-23T05:33:44.094Z,15.82
2023-02-23T05:36:16.417Z,16.27
2023-02-23T05:38:46.110Z,19.13
2023-02-23T05:41:16.791Z,20.33
2023-02-23T05:43:47.356Z,24.40
2023-02-23T05:46:18.079Z,22.80
2023-02-23T05:48:47.001Z,26.30
2023-02-23T05:51:18.062Z,31.77
2023-02-23T05:53:48.284Z,28.10
2023-02-23T05:56:20.779Z,25.95
2023-02-23T05:58:51.935Z,25.35
2023-02-23T06:01:21.948Z,29.38
2023-02-23T06:03:51.011Z,30.10
2023-02-23T06:06:20.626Z,32.45
2023-02-23T06:08:49.918Z,30.02
2023-02-23T06:11:19.266Z,37.88
2023-02-23T06:13:48.358Z,39.22
2023-02-23T06:16:18.672Z,34.15
2023-02-23T06:18:47.655Z,24.85
2023-02-23T06:21:16.665Z,24.40
2023-02-23T06:23:45.752Z,23.38
2023-02-23T06:26:14.975Z,24.50
2023-02-23T06:28:43.889Z,25.95
2023-02-23T06:31:13.273Z,28.02
2023-02-23T06:33:43.610Z,25.30
2023-02-23T06:36:12.517Z,27.17
2023-02-23T06:38:41.402Z,30.88
2023-02-23T06:41:10.842Z,32.17
2023-02-23T06:43:39.692Z,32.03
2023-02-23T06:46:08.737Z,31.90
2023-02-23T06:48:37.953Z,28.38
2023-02-23T06:51:08.388Z,24.67
2023-02-23T06:53:37.598Z,23.33
2023-02-23T06:56:07.071Z,18.45
2023-02-23T06:58:35.917Z,16.33
2023-02-23T07:01:04.826Z,16.50
2023-02-23T07:03:33.791Z,16.05
2023-02-23T07:06:04.778Z,14.75
2023-02-23T07:08:35.366Z,13.82
2023-02-23T07:11:08.940Z,13.07
2023-02-23T07:13:37.881Z,10.35
2023-02-23T07:16:07.980Z,11.77
2023-02-23T07:18:36.910Z,12.95
2023-02-23T07:21:06.105Z,10.82
2023-02-23T07:23:36.528Z,12.18
2023-02-23T07:26:05.579Z,9.15
2023-02-23T07:28:34.426Z,11.98
2023-02-23T07:31:03.923Z,12.00
2023-02-23T07:33:32.810Z,12.52
2023-02-23T07:36:01.824Z,10.60
2023-02-23T07:38:30.667Z,11.60
2023-02-23T07:41:00.953Z,10.20
2023-02-23T07:43:30.056Z,9.65
2023-02-23T07:46:00.586Z,9.85
2023-02-23T07:48:29.964Z,9.43
2023-02-23T07:50:58.942Z,9.40
2023-02-23T07:53:28.396Z,8.80
2023-02-23T07:55:57.869Z,8.30
2023-02-23T07:58:28.408Z,9.02
2023-02-23T08:00:57.837Z,6.45
2023-02-23T08:03:27.424Z,5.32
2023-02-23T08:05:56.314Z,5.65
2023-02-23T08:08:25.207Z,5.50
2023-02-23T08:11:01.983Z,5.90
2023-02-23T08:13:32.753Z,5.75
2023-02-23T08:16:01.715Z,4.75
2023-02-23T08:18:30.611Z,4.55
2023-02-23T08:21:00.401Z,3.60
2023-02-23T08:23:30.845Z,3.05
2023-02-23T08:26:00.689Z,3.13
2023-02-23T08:28:30.237Z,3.08
2023-02-23T08:31:00.923Z,2.45
2023-02-23T08:33:31.756Z,2.03
2023-02-23T08:36:03.010Z,2.42
2023-02-23T08:38:32.148Z,1.63
2023-02-23T08:41:02.041Z,2.20
2023-02-23T08:43:30.933Z,2.15
2023-02-23T08:46:01.417Z,1.85
2023-02-23T08:48:30.314Z,2.65
2023-02-23T08:50:59.909Z,2.20
2023-02-23T08:53:30.880Z,2.05
2023-02-23T08:56:00.803Z,1.35
2023-02-23T08:58:31.213Z,1.73
2023-02-23T09:01:03.347Z,1.92
2023-02-23T09:03:33.827Z,2.10
2023-02-23T09:06:09.691Z,2.22
2023-02-23T09:08:39.506Z,2.03
2023-02-23T09:11:08.398Z,1.73
2023-02-23T09:13:37.303Z,1.88
2023-02-23T09:16:09.653Z,2.17
2023-02-23T09:18:38.969Z,2.28
2023-02-23T09:21:10.980Z,1.92
2023-02-23T09:23:41.023Z,1.85
2023-02-23T09:26:10.197Z,1.42
2023-02-23T09:28:41.046Z,1.70
2023-02-23T09:31:13.210Z,1.80
2023-02-23T09:33:42.344Z,1.50
2023-02-23T09:36:16.346Z,1.60
2023-02-23T09:38:46.124Z,1.67
2023-02-23T09:41:51.639Z,1.90
2023-02-23T09:44:30.621Z,1.42
2023-02-23T09:47:15.210Z,1.67
2023-02-23T09:49:46.655Z,1.85
2023-02-23T09:52:20.099Z,1.42
2023-02-23T09:54:49.000Z,1.60
2023-02-23T09:57:24.840Z,2.00
2023-02-23T09:59:54.029Z,1.80
2023-02-23T10:02:34.677Z,2.20
2023-02-23T10:05:06.535Z,2.55
2023-02-23T10:07:47.345Z,2.17
2023-02-23T10:10:27.954Z,1.83
2023-02-23T10:13:09.653Z,2.20
2023-02-23T10:15:45.558Z,1.95
2023-02-23T10:18:44.966Z,1.98
2023-02-23T10:21:21.992Z,2.03
2023-02-23T10:23:55.376Z,2.00
2023-02-23T10:26:27.834Z,2.15
2023-02-23T10:28:59.992Z,2.40
2023-02-23T10:31:35.539Z,2.13
2023-02-23T10:34:14.838Z,2.33
2023-02-23T10:36:51.872Z,2.88
2023-02-23T10:39:20.767Z,2.97
2023-02-23T10:41:49.946Z,1.63
2023-02-23T10:44:21.990Z,2.03
2023-02-23T10:46:56.260Z,1.92
2023-02-23T10:49:31.660Z,1.70
2023-02-23T10:54:44.601Z,1.63
2023-02-23T10:57:21.142Z,1.33
2023-02-23T11:00:03.792Z,1.42
2023-02-23T11:02:33.932Z,1.40
2023-02-23T11:05:05.589Z,2.17
2023-02-23T11:07:35.827Z,2.13
2023-02-23T11:10:27.615Z,1.67
2023-02-23T11:12:56.453Z,1.58
2023-02-23T11:15:48.610Z,1.60
2023-02-23T11:18:22.798Z,1.60
2023-02-23T11:20:53.431Z,1.50
2023-02-23T11:23:29.378Z,1.50
2023-02-23T11:26:02.477Z,1.92
2023-02-23T11:28:34.725Z,1.65
2023-02-23T11:31:14.997Z,2.15
2023-02-23T11:33:44.706Z,1.90
2023-02-23T11:36:26.750Z,2.10
2023-02-23T11:39:04.005Z,2.08
2023-02-23T11:41:35.322Z,1.38
2023-02-23T11:44:06.514Z,2.40
2023-02-23T11:46:39.791Z,1.60
2023-02-23T11:49:15.960Z,1.50
2023-02-23T11:51:50.261Z,1.50
2023-02-23T11:54:24.467Z,1.77
2023-02-23T11:56:55.319Z,1.63
2023-02-23T11:59:31.125Z,2.10
2023-02-23T12:02:07.237Z,1.83
2023-02-23T12:04:38.587Z,1.45
2023-02-23T12:07:38.970Z,2.08
2023-02-23T12:10:15.501Z,1.83
2023-02-23T12:12:50.938Z,2.05
2023-02-23T12:15:33.772Z,2.30
2023-02-23T12:18:09.513Z,3.20
2023-02-23T12:20:43.115Z,2.20
2023-02-23T12:23:16.365Z,3.47
2023-02-23T12:25:49.974Z,1.70
2023-02-23T12:28:26.944Z,2.55
2023-02-23T12:31:00.019Z,2.40
2023-02-23T12:33:35.378Z,2.20
2023-02-23T12:38:48.843Z,1.73
2023-02-23T12:41:24.702Z,2.05
2023-02-23T12:44:00.850Z,2.20
2023-02-23T12:46:35.463Z,1.95
2023-02-23T12:49:13.965Z,2.50
2023-02-23T12:51:49.018Z,1.95
2023-02-23T12:54:19.930Z,1.80
2023-02-23T12:56:57.219Z,2.67
2023-02-23T12:59:51.096Z,2.30
2023-02-23T13:02:26.922Z,7.30
2023-02-23T13:05:24.345Z,2.58
2023-02-23T13:08:12.819Z,2.03
2023-02-23T13:10:52.236Z,1.55
2023-02-23T13:13:32.382Z,1.55
2023-02-23T13:16:09.924Z,2.17
2023-02-23T13:18:44.228Z,1.95
2023-02-23T13:21:20.985Z,2.08
2023-02-23T13:24:00.759Z,3.00
2023-02-23T13:26:40.236Z,2.75
2023-02-23T13:29:27.231Z,2.35
2023-02-23T13:31:56.693Z,2.90
2023-02-23T13:34:28.939Z,2.17
2023-02-23T13:37:00.186Z,2.55
2023-02-23T13:39:47.807Z,3.03
2023-02-23T13:42:28.186Z,2.53
2023-02-23T13:45:06.539Z,3.17
2023-02-23T13:47:45.513Z,2.22
2023-02-23T13:50:21.886Z,2.63
2023-02-23T13:52:51.052Z,3.33
2023-02-23T13:55:48.816Z,3.63
2023-02-23T13:58:28.138Z,3.33
2023-02-23T14:01:07.245Z,3.35
2023-02-23T14:03:42.635Z,3.25
2023-02-23T14:08:45.135Z,3.03
2023-02-23T14:11:31.227Z,2.97
2023-02-23T14:14:03.524Z,3.17
2023-02-23T14:16:32.716Z,3.75
2023-02-23T14:19:13.056Z,3.50
2023-02-23T14:21:52.066Z,3.97
2023-02-23T14:24:23.832Z,3.50
2023-02-23T14:27:34.110Z,4.15
2023-02-23T14:30:16.843Z,3.75
2023-02-23T14:32:47.724Z,4.60
2023-02-23T14:35:42.742Z,3.58
2023-02-23T14:38:18.624Z,3.55
2023-02-23T14:40:51.706Z,3.80
2023-02-23T14:43:43.347Z,3.40
2023-02-23T14:46:22.794Z,3.65
2023-02-23T14:49:00.724Z,3.60
2023-02-23T14:51:44.887Z,4.47
2023-02-23T14:54:23.290Z,4.78
2023-02-23T14:56:54.979Z,3.08
2023-02-23T14:59:27.022Z,2.88
2023-02-23T15:02:02.100Z,4.25
2023-02-23T15:04:31.520Z,2.45
2023-02-23T15:07:03.229Z,2.78
2023-02-23T15:09:36.847Z,3.10
2023-02-23T15:12:14.980Z,3.10
2023-02-23T15:14:44.883Z,3.00
2023-02-23T15:17:22.040Z,4.03
2023-02-23T15:20:05.939Z,4.47
2023-02-23T15:22:42.815Z,2.58
2023-02-23T15:25:17.264Z,3.80
2023-02-23T15:27:47.397Z,4.37
2023-02-23T15:30:26.617Z,4.97
2023-02-23T15:33:04.764Z,3.58
2023-02-23T15:35:44.515Z,3.55
2023-02-23T15:38:42.331Z,3.60
2023-02-23T15:41:15.405Z,3.60
2023-02-23T15:43:44.676Z,7.72
2023-02-23T15:46:24.610Z,4.78
2023-02-23T15:48:56.758Z,5.38
2023-02-23T15:51:33.982Z,4.70
2023-02-23T15:54:07.900Z,7.25
2023-02-23T15:56:36.864Z,8.20
2023-02-23T15:59:13.142Z,5.40
2023-02-23T16:01:45.135Z,7.22
2023-02-23T16:04:20.116Z,6.68
2023-02-23T16:06:54.614Z,5.45
2023-02-23T16:09:28.602Z,7.90
2023-02-23T16:12:03.474Z,7.82
2023-02-23T16:14:37.669Z,5.90
2023-02-23T16:17:11.666Z,7.00
2023-02-23T16:19:45.016Z,6.57
2023-02-23T16:22:23.306Z,4.72
2023-02-23T16:25:00.448Z,6.93
2023-02-23T16:27:31.175Z,6.40
2023-02-23T16:30:06.673Z,5.55
2023-02-23T16:32:38.303Z,5.63
2023-02-23T16:35:17.953Z,6.30
2023-02-23T16:38:03.453Z,5.38
2023-02-23T16:40:32.945Z,5.75
2023-02-23T16:43:02.798Z,6.85
2023-02-23T16:45:31.921Z,6.45
2023-02-23T16:48:03.359Z,6.28
2023-02-23T16:50:40.513Z,7.25
2023-02-23T16:53:11.186Z,7.18
2023-02-23T16:55:43.620Z,7.20
2023-02-23T16:58:18.977Z,6.35
2023-02-23T17:00:48.108Z,6.07
2023-02-23T17:03:20.548Z,5.75
2023-02-23T17:05:51.150Z,7.40
2023-02-23T17:08:20.366Z,6.78
2023-02-23T17:10:52.249Z,7.82
2023-02-23T17:13:22.253Z,7.07
2023-02-23T17:15:53.730Z,6.80
2023-02-23T17:21:04.523Z,5.75
2023-02-23T17:23:42.520Z,6.57
2023-02-23T17:26:12.884Z,5.25
2023-02-23T17:28:42.006Z,6.85
2023-02-23T17:31:11.553Z,6.13
2023-02-23T17:33:42.380Z,5.38
2023-02-23T17:36:14.719Z,6.68
2023-02-23T17:38:44.976Z,6.80
2023-02-23T17:41:16.222Z,6.68
2023-02-23T17:43:45.473Z,6.13
2023-02-23T17:46:14.792Z,8.48
2023-02-23T17:48:47.372Z,7.38
2023-02-23T17:51:20.127Z,6.72
2023-02-23T17:53:49.252Z,8.02
2023-02-23T17:56:19.990Z,7.55
2023-02-23T17:58:48.958Z,8.20
2023-02-23T18:01:19.794Z,8.00
2023-02-23T18:03:51.054Z,7.13
2023-02-23T18:06:21.304Z,6.50
2023-02-23T18:08:50.286Z,8.55
2023-02-23T18:11:19.865Z,9.38
2023-02-23T18:13:51.219Z,8.13
2023-02-23T18:16:21.756Z,7.00
2023-02-23T18:18:50.775Z,7.25
2023-02-23T18:21:23.498Z,7.25
2023-02-23T18:23:52.925Z,8.52
2023-02-23T18:26:24.681Z,7.43
2023-02-23T18:28:55.337Z,6.75
2023-02-23T18:31:28.118Z,7.57
2023-02-23T18:33:58.060Z,6.57
2023-02-23T18:36:30.175Z,5.97
2023-02-23T18:39:00.924Z,8.20
2023-02-23T18:41:31.792Z,6.03
2023-02-23T18:44:02.015Z,5.78
2023-02-23T18:46:31.453Z,7.72
2023-02-23T18:49:00.643Z,7.68
2023-02-23T18:51:31.071Z,7.57
2023-02-23T18:54:00.819Z,7.95
2023-02-23T18:56:29.718Z,6.70
2023-02-23T18:59:00.336Z,6.40
2023-02-23T19:01:33.361Z,7.13
2023-02-23T19:04:03.710Z,6.63
2023-02-23T19:06:35.059Z,6.07
2023-02-23T19:09:07.882Z,7.53
2023-02-23T19:11:37.987Z,7.00
2023-02-23T19:14:09.518Z,7.00
2023-02-23T19:16:39.051Z,7.75
2023-02-23T19:19:09.506Z,7.20
2023-02-23T19:21:40.476Z,7.43
2023-02-23T19:24:09.762Z,7.72
2023-02-23T19:26:39.921Z,6.63
2023-02-23T19:29:09.097Z,6.57
2023-02-23T19:31:38.229Z,7.68
2023-02-23T19:34:08.928Z,8.38
2023-02-23T19:36:40.180Z,8.95
2023-02-23T19:39:15.560Z,7.68
2023-02-23T19:41:45.737Z,10.23
2023-02-23T19:44:14.609Z,7.97
2023-02-23T19:46:43.519Z,8.35
2023-02-23T19:49:13.073Z,10.57
2023-02-23T19:51:44.334Z,12.43
2023-02-23T19:54:13.262Z,10.65
2023-02-23T19:56:43.389Z,10.25
2023-02-23T19:59:12.308Z,8.98
2023-02-23T20:01:41.238Z,7.70
2023-02-23T20:04:10.062Z,8.13
2023-02-23T20:06:44.696Z,6.88
2023-02-23T20:09:15.645Z,7.28
2023-02-23T20:11:44.528Z,6.72
2023-02-23T20:14:13.364Z,7.00
2023-02-23T20:16:42.314Z,7.70
2023-02-23T20:19:11.726Z,7.53
2023-02-23T20:21:42.171Z,6.95
2023-02-23T20:24:12.819Z,8.05
2023-02-23T20:26:43.222Z,6.30
2023-02-23T20:29:17.930Z,9.00
2023-02-23T20:31:50.771Z,8.00
2023-02-23T20:34:24.024Z,8.80
2023-02-23T20:36:53.922Z,7.82
2023-02-23T20:39:24.365Z,7.57
2023-02-23T20:41:54.709Z,7.25
2023-02-23T20:44:25.448Z,7.05
2023-02-23T20:46:54.363Z,8.52
2023-02-23T20:49:24.431Z,7.18
2023-02-23T20:51:53.272Z,7.00
2023-02-23T20:54:22.316Z,6.35
2023-02-23T20:56:58.938Z,7.30
2023-02-23T20:59:31.072Z,6.60
2023-02-23T21:02:02.460Z,6.90
2023-02-23T21:04:32.189Z,6.22
2023-02-23T21:07:01.107Z,5.80
2023-02-23T21:09:30.799Z,6.38
2023-02-23T21:11:59.747Z,9.43
2023-02-23T21:14:29.933Z,12.73
2023-02-23T21:16:58.832Z,10.50
2023-02-23T21:19:27.715Z,11.13
2023-02-23T21:21:58.052Z,9.45
2023-02-23T21:24:27.605Z,7.03
2023-02-23T21:26:56.417Z,7.32
2023-02-23T21:29:25.246Z,10.05
2023-02-23T21:31:55.849Z,8.13
2023-02-23T21:34:24.755Z,8.35
2023-02-23T21:36:53.902Z,7.43
2023-02-23T21:39:22.820Z,7.90
2023-02-23T21:41:51.712Z,7.75
2023-02-23T21:44:20.626Z,7.93
2023-02-23T21:46:50.709Z,8.10
2023-02-23T21:49:21.468Z,8.00
2023-02-23T21:51:51.908Z,8.10
2023-02-23T21:54:21.552Z,10.95
2023-02-23T21:56:50.688Z,14.77
2023-02-23T21:59:20.440Z,8.13
2023-02-23T22:01:49.385Z,10.20
2023-02-23T22:04:19.195Z,10.00
2023-02-23T22:06:49.407Z,8.55
2023-02-23T22:09:18.643Z,9.82
2023-02-23T22:11:48.646Z,8.23
2023-02-23T22:14:18.061Z,7.43
2023-02-23T22:16:47.753Z,8.13
2023-02-23T22:19:17.147Z,7.47
2023-02-23T22:21:47.851Z,8.45
2023-02-23T22:24:18.856Z,8.65
2023-02-23T22:26:50.649Z,8.07
2023-02-23T22:29:19.627Z,8.30
2023-02-23T22:31:48.985Z,6.88
2023-02-23T22:34:19.374Z,8.52
2023-02-23T22:36:50.053Z,8.02
2023-02-23T22:39:20.355Z,7.07
2023-02-23T22:41:49.557Z,9.25
2023-02-23T22:44:21.201Z,7.90
2023-02-23T22:46:50.232Z,10.18
2023-02-23T22:49:20.070Z,9.25
2023-02-23T22:51:50.616Z,7.65
2023-02-23T22:54:23.799Z,7.32
2023-02-23T22:56:52.953Z,7.35
2023-02-23T22:59:21.838Z,8.35
2023-02-23T23:01:50.718Z,9.90
2023-02-23T23:04:22.121Z,8.82
2023-02-23T23:06:51.596Z,6.78
2023-02-23T23:09:22.168Z,7.22
2023-02-23T23:11:52.009Z,7.20
2023-02-23T23:14:21.309Z,7.97
2023-02-23T23:16:51.070Z,7.22
2023-02-23T23:19:24.364Z,6.50
2023-02-23T23:21:55.722Z,6.43
2023-02-23T23:24:26.542Z,7.57
2023-02-23T23:27:00.239Z,7.63
2023-02-23T23:29:30.747Z,6.75
2023-02-23T23:32:01.026Z,8.73
2023-02-23T23:34:33.599Z,7.13
2023-02-23T23:37:02.851Z,7.70
2023-02-23T23:39:33.246Z,5.57
2023-02-23T23:42:03.604Z,7.13
2023-02-23T23:44:33.906Z,7.30
2023-02-23T23:47:05.511Z,7.28
2023-02-23T23:49:37.941Z,6.25
2023-02-23T23:52:07.503Z,6.35
2023-02-23T23:54:41.302Z,6.60
2023-02-23T23:57:11.476Z,6.97
2023-02-23T23:59:46.224Z,8.05
